createdAt,value
2022-10-23T00:03:59.838Z,1008.542
2022-10-23T00:09:12.083Z,1008.603
2022-10-23T00:14:24.510Z,1008.617
2022-10-23T00:19:36.817Z,1008.71
2022-10-23T00:24:49.098Z,1008.754
2022-10-23T00:30:05.104Z,1008.752
2022-10-23T00:35:17.480Z,1008.739
2022-10-23T00:40:29.655Z,1008.695
2022-10-23T00:45:41.936Z,1008.734
2022-10-23T00:50:54.361Z,1008.736
2022-10-23T00:56:06.550Z,1008.737
2022-10-23T01:01:19.037Z,1008.76
2022-10-23T01:06:31.079Z,1008.728
2022-10-23T01:11:43.698Z,1008.767
2022-10-23T01:16:56.085Z,1008.806
2022-10-23T01:22:08.512Z,1008.774
2022-10-23T01:27:20.881Z,1008.837
2022-10-23T01:32:33.050Z,1008.868
2022-10-23T01:37:45.378Z,1008.873
2022-10-23T01:42:57.901Z,1008.93
2022-10-23T01:48:10.106Z,1008.902
2022-10-23T01:53:22.446Z,1008.854
2022-10-23T01:58:34.818Z,1008.805
2022-10-23T02:03:47.204Z,1008.797
2022-10-23T02:08:59.274Z,1008.778
2022-10-23T02:14:11.718Z,1008.775
2022-10-23T02:19:24.214Z,1008.795
2022-10-23T02:24:36.499Z,1008.727
2022-10-23T02:29:48.745Z,1008.723
2022-10-23T02:35:01.024Z,1008.708
2022-10-23T02:40:14.158Z,1008.686
2022-10-23T02:45:26.509Z,1008.654
2022-10-23T02:50:38.679Z,1008.688
2022-10-23T02:55:51.035Z,1008.712
2022-10-23T03:01:03.474Z,1008.725
2022-10-23T03:06:21.214Z,1008.684
2022-10-23T03:11:28.536Z,1008.716
2022-10-23T03:16:40.899Z,1008.648
2022-10-23T03:21:53.282Z,1008.673
2022-10-23T03:27:05.532Z,1008.722
2022-10-23T03:32:18.165Z,1008.71
2022-10-23T03:37:30.628Z,1008.716
2022-10-23T03:42:43.088Z,1008.758
2022-10-23T03:47:56.050Z,1008.783
2022-10-23T03:53:08.246Z,1008.882
2022-10-23T03:58:20.544Z,1008.892
2022-10-23T04:03:32.914Z,1008.845
2022-10-23T04:08:45.113Z,1008.783
2022-10-23T04:13:57.331Z,1008.821
2022-10-23T04:19:09.584Z,1008.763
2022-10-23T04:24:21.776Z,1008.752
2022-10-23T04:29:34.084Z,1008.695
2022-10-23T04:34:46.453Z,1008.66
2022-10-23T04:39:58.922Z,1008.72
2022-10-23T04:45:11.229Z,1008.784
2022-10-23T04:50:23.595Z,1008.766
2022-10-23T04:55:35.791Z,1008.745
2022-10-23T05:00:48.130Z,1008.786
2022-10-23T05:06:00.277Z,1008.769
2022-10-23T05:11:12.559Z,1008.7
2022-10-23T05:16:24.803Z,1008.673
2022-10-23T05:21:37.138Z,1008.651
2022-10-23T05:26:49.407Z,1008.732
2022-10-23T05:32:01.828Z,1008.711
2022-10-23T05:37:14.216Z,1008.705
2022-10-23T05:42:26.511Z,1008.736
2022-10-23T05:47:38.845Z,1008.819
2022-10-23T05:52:51.295Z,1008.865
2022-10-23T05:58:03.344Z,1008.818
2022-10-23T06:03:15.695Z,1008.762
2022-10-23T06:08:28.257Z,1008.68
2022-10-23T06:13:40.566Z,1008.748
2022-10-23T06:18:52.779Z,1008.709
2022-10-23T06:24:05.103Z,1008.684
2022-10-23T06:29:17.317Z,1008.627
2022-10-23T06:34:29.744Z,1008.679
2022-10-23T06:39:42.126Z,1008.626
2022-10-23T06:44:54.449Z,1008.742
2022-10-23T06:50:08.633Z,1008.868
2022-10-23T06:55:19.396Z,1008.93
2022-10-23T07:00:31.682Z,1008.953
2022-10-23T07:05:44.195Z,1008.809
2022-10-23T07:10:56.577Z,1008.845
2022-10-23T07:16:08.839Z,1008.943
2022-10-23T07:21:21.365Z,1008.899
2022-10-23T07:26:33.841Z,1008.942
2022-10-23T07:31:46.206Z,1008.906
2022-10-23T07:36:58.608Z,1008.929
2022-10-23T07:42:11.060Z,1008.875
2022-10-23T07:47:23.893Z,1008.859
2022-10-23T07:52:36.314Z,1008.896
2022-10-23T07:57:48.528Z,1008.849
2022-10-23T08:03:00.763Z,1008.813
2022-10-23T08:08:13.195Z,1008.864
2022-10-23T08:13:25.511Z,1008.844
2022-10-23T08:18:38.061Z,1008.76
2022-10-23T08:23:50.364Z,1008.767
2022-10-23T08:29:02.960Z,1008.878
2022-10-23T08:34:15.239Z,1008.911
2022-10-23T08:39:27.497Z,1008.84
2022-10-23T08:44:39.911Z,1008.856
2022-10-23T08:49:52.299Z,1008.796
2022-10-23T08:55:04.694Z,1008.756
2022-10-23T09:00:17.195Z,1008.715
2022-10-23T09:05:29.481Z,1008.774
2022-10-23T09:10:41.778Z,1008.767
2022-10-23T09:15:54.136Z,1008.686
2022-10-23T09:21:06.604Z,1008.671
2022-10-23T09:26:19.174Z,1008.636
2022-10-23T09:31:31.564Z,1008.629
2022-10-23T09:36:44.000Z,1008.638
2022-10-23T09:41:56.984Z,1008.649
2022-10-23T09:47:08.706Z,1008.726
2022-10-23T09:52:21.097Z,1008.578
2022-10-23T09:57:33.514Z,1008.578
2022-10-23T10:02:45.769Z,1008.59
2022-10-23T10:07:58.485Z,1008.565
2022-10-23T10:13:14.222Z,1008.597
2022-10-23T10:18:23.627Z,1008.582
2022-10-23T10:23:35.848Z,1008.471
2022-10-23T10:28:48.290Z,1008.454
2022-10-23T10:34:00.795Z,1008.505
2022-10-23T10:39:13.141Z,1008.461
2022-10-23T10:44:25.814Z,1008.383
2022-10-23T10:49:38.172Z,1008.332
2022-10-23T10:54:50.600Z,1008.326
2022-10-23T11:00:02.792Z,1008.208
2022-10-23T11:05:15.193Z,1008.05
2022-10-23T11:10:27.434Z,1008.061
2022-10-23T11:15:40.040Z,1007.811
2022-10-23T11:20:52.554Z,1007.877
2022-10-23T11:26:04.811Z,1007.753
2022-10-23T11:31:17.199Z,1007.737
2022-10-23T11:36:29.598Z,1007.682
2022-10-23T11:41:42.113Z,1007.56
2022-10-23T11:46:54.550Z,1007.558
2022-10-23T11:52:07.067Z,1007.44
2022-10-23T11:57:19.459Z,1007.282
2022-10-23T12:02:32.030Z,1007.362
2022-10-23T12:07:44.349Z,1007.354
2022-10-23T12:12:56.591Z,1007.327
2022-10-23T12:18:09.335Z,1007.264
2022-10-23T12:23:21.669Z,1007.157
2022-10-23T12:28:33.874Z,1007.077
2022-10-23T12:33:46.399Z,1007.03
2022-10-23T12:38:58.667Z,1006.981
2022-10-23T12:44:10.800Z,1006.863
2022-10-23T12:49:23.175Z,1006.762
2022-10-23T12:54:35.407Z,1006.711
2022-10-23T12:59:47.610Z,1006.579
2022-10-23T13:04:59.921Z,1006.504
2022-10-23T13:10:12.207Z,1006.379
2022-10-23T13:15:24.374Z,1006.255
2022-10-23T13:20:36.595Z,1006.204
2022-10-23T13:25:49.242Z,1006.227
2022-10-23T13:31:01.558Z,1006.213
2022-10-23T13:36:13.965Z,1006.157
2022-10-23T13:41:26.287Z,1006.128
2022-10-23T13:46:38.603Z,1006.031
2022-10-23T13:51:50.877Z,1006.022
2022-10-23T13:57:03.421Z,1005.997
2022-10-23T14:02:15.549Z,1005.929
2022-10-23T14:07:27.715Z,1005.81
2022-10-23T14:12:40.149Z,1005.784
2022-10-23T14:17:55.293Z,1005.735
2022-10-23T14:23:04.600Z,1005.763
2022-10-23T14:28:16.935Z,1005.737
2022-10-23T14:33:29.223Z,1005.67
2022-10-23T14:38:41.568Z,1005.615
2022-10-23T14:43:53.877Z,1005.551
2022-10-23T14:49:06.062Z,1005.578
2022-10-23T14:54:17.687Z,1005.527
2022-10-23T14:59:29.826Z,1005.504
2022-10-23T15:04:42.113Z,1005.465
2022-10-23T15:09:54.737Z,1005.435
2022-10-23T15:15:07.081Z,1005.31
2022-10-23T15:20:19.417Z,1005.152
2022-10-23T15:25:31.745Z,1005.122
2022-10-23T15:30:44.070Z,1005.008
2022-10-23T15:35:56.279Z,1004.947
2022-10-23T15:41:08.620Z,1004.965
2022-10-23T15:46:20.957Z,1004.848
2022-10-23T15:51:33.151Z,1004.775
2022-10-23T15:56:45.780Z,1004.853
2022-10-23T16:01:58.237Z,1004.76
2022-10-23T16:07:10.371Z,1004.77
2022-10-23T16:12:22.726Z,1004.669
2022-10-23T16:17:35.079Z,1004.625
2022-10-23T16:22:47.503Z,1004.685
2022-10-23T16:27:59.695Z,1004.64
2022-10-23T16:33:11.885Z,1004.558
2022-10-23T16:38:24.569Z,1004.351
2022-10-23T16:43:36.863Z,1004.374
2022-10-23T16:48:49.222Z,1004.462
2022-10-23T16:54:01.535Z,1004.396
2022-10-23T16:59:14.048Z,1004.254
2022-10-23T17:04:26.414Z,1004.254
2022-10-23T17:09:38.704Z,1004.028
2022-10-23T17:14:51.038Z,1003.982
2022-10-23T17:20:03.571Z,1003.765
2022-10-23T17:25:16.097Z,1003.673
2022-10-23T17:30:28.607Z,1003.816
2022-10-23T17:35:40.749Z,1003.832
2022-10-23T17:40:53.056Z,1003.758
2022-10-23T17:46:05.304Z,1003.602
2022-10-23T17:51:17.733Z,1003.641
2022-10-23T17:56:30.333Z,1003.726
2022-10-23T18:01:42.918Z,1003.595
2022-10-23T18:06:55.089Z,1003.506
2022-10-23T18:12:07.512Z,1003.431
2022-10-23T18:17:19.907Z,1003.389
2022-10-23T18:22:32.095Z,1003.347
2022-10-23T18:27:45.691Z,1003.273
2022-10-23T18:32:57.931Z,1003.214
2022-10-23T18:38:10.429Z,1003.201
2022-10-23T18:43:38.765Z,1003.251
2022-10-23T18:48:35.003Z,1003.124
2022-10-23T18:53:47.704Z,1003.075
2022-10-23T18:59:00.061Z,1003.159
2022-10-23T19:04:13.599Z,1003.078
2022-10-23T19:09:26.060Z,1003.018
2022-10-23T19:14:38.567Z,1003.047
2022-10-23T19:19:51.081Z,1002.999
2022-10-23T19:25:03.257Z,1003.037
2022-10-23T19:30:16.288Z,1002.941
2022-10-23T19:35:27.943Z,1002.71
2022-10-23T19:40:40.393Z,1002.644
2022-10-23T19:45:52.573Z,1002.6
2022-10-23T19:51:04.923Z,1002.653
2022-10-23T19:56:17.179Z,1002.8
2022-10-23T20:01:29.592Z,1002.722
2022-10-23T20:06:41.895Z,1002.78
2022-10-23T20:11:54.119Z,1002.721
2022-10-23T20:17:06.951Z,1002.725
2022-10-23T20:22:19.188Z,1002.731
2022-10-23T20:27:31.632Z,1002.696
2022-10-23T20:32:44.352Z,1002.65
2022-10-23T20:37:56.251Z,1002.654
2022-10-23T20:43:08.590Z,1002.665
2022-10-23T20:48:20.797Z,1002.608
2022-10-23T20:53:33.334Z,1002.496
2022-10-23T20:58:45.672Z,1002.384
2022-10-23T21:03:58.074Z,1002.415
2022-10-23T21:14:22.849Z,1002.288
2022-10-23T21:19:35.242Z,1002.204
2022-10-23T21:24:47.765Z,1002.294
2022-10-23T21:29:59.989Z,1002.579
2022-10-23T21:35:12.362Z,1002.684
2022-10-23T21:40:24.926Z,1002.742
2022-10-23T21:45:37.284Z,1002.85
2022-10-23T21:56:01.981Z,1002.72
2022-10-23T22:01:14.418Z,1002.656
2022-10-23T22:06:26.614Z,1002.635
2022-10-23T22:11:38.940Z,1002.743
2022-10-23T22:16:51.231Z,1002.79
2022-10-23T22:22:03.499Z,1002.937
2022-10-23T22:27:15.944Z,1003.039
2022-10-23T22:32:28.509Z,1003.033
2022-10-23T22:37:40.863Z,1002.929
2022-10-23T22:42:54.095Z,1002.985
2022-10-23T22:48:06.456Z,1002.992
2022-10-23T22:53:18.801Z,1003.031
2022-10-23T22:58:31.239Z,1002.961
2022-10-23T23:03:43.587Z,1002.88
2022-10-23T23:08:55.773Z,1002.703
2022-10-23T23:14:08.110Z,1002.646
2022-10-23T23:19:20.441Z,1002.533
2022-10-23T23:24:32.839Z,1002.611
2022-10-23T23:29:45.068Z,1002.401
2022-10-23T23:34:57.530Z,1002.283
2022-10-23T23:40:10.033Z,1002.383
2022-10-23T23:45:22.645Z,1002.319
2022-10-23T23:50:34.900Z,1002.053
2022-10-23T23:55:47.437Z,1002.025
